• Join FlightAware (Why Join?)
  • Login
  • US Flag 
10:41AM EDT


 

Airport Tracker/Info


-or-


 

Live Flight TrackerFlight Track Log ✈ VH-VQB ✈ 12-Apr-2013 ✈ YBCS / CNS - YBCG / OOL

Flight Track Log - Related Links

Times and Time Zones

All times are in EDT time to prevent confusion due to time zone crossing. See the VH-VQB flight status page for this flight to view local times or setup timezone preferences in your user account.

Time Position Orientation Groundspeed Altitude Reporting Facility
EDT Latitude Longitude Course Direction KTS MPH feet Rate Location/Type
09:24PM -16.8897 145.7729 41° Northeast 144 166 2,500  Level Aus ATC (RADAR)
09:25PM -16.8445 145.8137 41° Northeast 197 227 4,300 1,500 Climbing Aus ATC (RADAR)
09:26PM -16.8439 145.8299 88° East 211 243 4,700 1,920 Climbing Aus ATC (RADAR)
09:26PM -16.8729 145.8589 136° Southeast 253 291 5,900 1,860 Climbing Aus ATC (RADAR)
09:27PM -16.8940 145.8720 136° Southeast 298 343 6,400 1,380 Climbing FlightAware
09:27PM -16.9140 145.8830 152° Southeast 329 379 6,700 780 Climbing FlightAware
09:27PM -16.9440 145.9010 152° Southeast 332 382 6,900 1,800 Climbing Aus ATC (RADAR)
09:28PM -16.9948 145.9333 149° Southeast 362 417 8,400 2,280 Climbing Aus ATC (RADAR)
09:28PM -17.0230 145.9510 149° Southeast 379 436 9,200 2,400 Climbing FlightAware
09:29PM -17.0791 145.9879 149° Southeast 390 449 10,600 2,520 Climbing Aus ATC (RADAR)
09:29PM -17.0870 145.9930 149° Southeast 397 457 10,900 2,520 Climbing FlightAware
09:29PM -17.1344 146.0229 149° Southeast 397 457 12,100 2,220 Climbing Aus ATC (RADAR)
09:30PM -17.1560 146.0400 149° Southeast 408 470 12,600 2,640 Climbing FlightAware
09:30PM -17.2150 146.0930 139° Southeast 410 472 14,700 2,340 Climbing FlightAware
09:31PM -17.2443 146.1194 139° Southeast 413 475 14,800 540 Climbing Aus ATC (RADAR)
09:31PM -17.2676 146.1401 140° Southeast 426 490 15,000 1,020 Climbing Aus ATC (RADAR)
09:31PM -17.2830 146.1540 140° Southeast 445 512 15,300 1,980 Climbing FlightAware
09:32PM -17.3490 146.2130 140° Southeast 454 522 16,800 3,000 Climbing FlightAware
09:32PM -17.3962 146.2547 140° Southeast 451 519 18,600 4,200 Climbing Aus ATC (RADAR)
09:32PM -17.4120 146.2690 140° Southeast 427 491 19,600 3,300 Climbing FlightAware
09:33PM -17.4484 146.3015 140° Southeast 424 488 20,600 1,860 Climbing Aus ATC (RADAR)
09:33PM -17.4790 146.3290 140° Southeast 431 496 21,000 840 Climbing FlightAware
09:34PM -17.5344 146.3781 140° Southeast 449 517 21,400 900 Climbing Aus ATC (RADAR)
09:34PM -17.5420 146.3850 140° Southeast 466 536 21,600 660 Climbing FlightAware
09:34PM -17.5930 146.4305 140° Southeast 475 547 21,800 660 Climbing Aus ATC (RADAR)
09:35PM -17.6210 146.4560 140° Southeast 489 563 22,100 600 Climbing FlightAware
09:35PM -17.6810 146.5094 140° Southeast 501 577 22,300 600 Climbing Aus ATC (RADAR)
09:35PM -17.6930 146.5200 140° Southeast 512 589 22,500 2,280 Climbing FlightAware
09:36PM -17.7670 146.5870 139° Southeast 491 565 24,400 2,460 Climbing FlightAware
09:36PM -17.8227 146.6369 139° Southeast 488 562 25,400 1,800 Climbing Aus ATC (RADAR)
09:37PM -17.8410 146.6530 139° Southeast 488 562 25,600 480 Climbing FlightAware
09:37PM -17.9108 146.7160 139° Southeast 502 578 25,800 600 Climbing Aus ATC (RADAR)
09:37PM -17.9130 146.7180 139° Southeast 510 587 26,000 480 Climbing FlightAware
09:38PM -17.9930 146.7900 139° Southeast 528 608 26,200 900 Climbing FlightAware
09:39PM -18.0710 146.8600 140° Southeast 515 593 27,300 2,340 Climbing FlightAware
09:40PM -18.1814 146.9603 140° Southeast 493 567 30,100 1,860 Climbing Aus ATC (RADAR)
09:40PM -18.2587 147.0302 139° Southeast 493 567 30,600 540 Climbing Aus ATC (RADAR)
09:41PM -18.3299 147.0949 139° Southeast 509 586 30,900 540 Climbing Aus ATC (RADAR)
09:41PM -18.3571 147.1198 139° Southeast 515 593 31,100 480 Climbing Aus ATC (RADAR)
09:42PM -18.4219 147.1790 139° Southeast 529 609 31,300 600 Climbing Aus ATC (RADAR)
09:43PM -18.5260 147.2730 139° Southeast 540 621 32,000 480 Climbing Aus ATC (RADAR)
09:43PM -18.5670 147.3100 139° Southeast 544 626 32,000  Level FlightAware
09:44PM -18.6470 147.3840 139° Southeast 544 626 32,000 1,200 Level FlightAware
09:44PM -18.7091 147.4395 139° Southeast 551 634 33,400  Climbing Aus ATC (RADAR)
09:45PM -18.7120 147.4430 139° Southeast 544 626 32,000 720 Descending FlightAware
09:45PM -18.7866 147.5105 139° Southeast 555 639 33,900  Climbing Aus ATC (RADAR)
09:45PM -18.7770 147.5020 139° Southeast 544 626 32,000 960 Descending FlightAware
09:46PM -18.9030 147.6164 139° Southeast 553 636 34,900  Climbing Aus ATC (RADAR)
09:46PM -18.8410 147.5610 139° Southeast 544 626 32,000 -4,260 Descending FlightAware
09:47PM -18.9060 147.6210 139° Southeast 544 626 32,000  Level FlightAware
09:48PM -18.9860 147.6950 139° Southeast 544 626 32,000  Level FlightAware
09:48PM -19.0510 147.7540 139° Southeast 544 626 32,000  Level FlightAware
09:49PM -19.1160 147.8140 139° Southeast 544 626 32,000 3,900 Level FlightAware
09:50PM -19.2931 147.9747 139° Southeast 551 634 36,900  Climbing Aus ATC (RADAR)
09:50PM -19.1800 147.8730 139° Southeast 544 626 32,000  Descending FlightAware
09:50PM -19.3510 148.0278 139° Southeast 550 633 36,900  Climbing Aus ATC (RADAR)
09:50PM -19.2450 147.9330 139° Southeast 544 626 32,000 -4,500 Descending FlightAware
09:51PM -19.3250 148.0070 139° Southeast 544 626 32,000 4,260 Level FlightAware
09:51PM -19.5154 148.1793 139° Southeast 554 638 36,900  Climbing Aus ATC (RADAR)
09:52PM -19.3900 148.0670 139° Southeast 544 626 32,000  Descending FlightAware
09:52PM -19.6216 148.2771 139° Southeast 548 631 36,900  Climbing Aus ATC (RADAR)
09:52PM -19.4550 148.1260 139° Southeast 544 626 32,000  Descending FlightAware
09:53PM -19.7373 148.3850 139° Southeast 553 636 36,900 3,300 Climbing Aus ATC (RADAR)
09:54PM -19.8053 148.4469 139° Southeast 552 635 36,900 60 Level Aus ATC (RADAR)
09:55PM -19.9212 148.5549 139° Southeast 553 636 37,000  Climbing Aus ATC (RADAR)
09:56PM -20.0177 148.6456 139° Southeast 558 642 37,000  Level Aus ATC (RADAR)
09:56PM -20.0954 148.7169 139° Southeast 551 634 37,000  Level Aus ATC (RADAR)
09:57PM -20.1820 148.7982 139° Southeast 553 636 37,000  Level Aus ATC (RADAR)
09:58PM -20.2875 148.8969 139° Southeast 548 631 37,000  Level Aus ATC (RADAR)
09:59PM -20.3564 148.9584 140° Southeast 546 628 37,000  Level Aus ATC (RADAR)
10:00PM -20.4958 149.0579 146° Southeast 556 640 37,000  Level Aus ATC (RADAR)
10:00PM -20.5711 149.1105 147° Southeast 550 633 37,000  Level Aus ATC (RADAR)
10:01PM -20.7114 149.2094 147° Southeast 556 640 37,000  Level Aus ATC (RADAR)
10:02PM -20.8195 149.2854 147° Southeast 552 635 37,000  Level Aus ATC (RADAR)
10:03PM -20.9497 149.3773 147° Southeast 557 641 37,000  Level Aus ATC (RADAR)
10:04PM -21.0247 149.4309 146° Southeast 556 640 37,000  Level Aus ATC (RADAR)
10:05PM -21.1671 149.5311 147° Southeast 557 641 37,000  Level Aus ATC (RADAR)
10:06PM -21.2436 149.5856 146° Southeast 562 647 37,000  Level Aus ATC (RADAR)
10:07PM -21.3965 149.6944 146° Southeast 565 650 37,000  Level Aus ATC (RADAR)
10:07PM -21.4511 149.7334 146° Southeast 565 650 37,000  Level Aus ATC (RADAR)
10:08PM -21.5167 149.7803 146° Southeast 566 651 37,000  Level Aus ATC (RADAR)
10:09PM -21.6371 149.8663 146° Southeast 566 651 37,000  Level Aus ATC (RADAR)
10:09PM -21.7144 149.9212 147° Southeast 569 655 37,000  Level Aus ATC (RADAR)
10:10PM -21.8683 150.0318 146° Southeast 569 655 37,000  Level Aus ATC (RADAR)
10:11PM -22.0337 150.1499 147° Southeast 571 657 37,000  Level Aus ATC (RADAR)
10:12PM -22.1215 150.2139 146° Southeast 572 658 37,000  Level Aus ATC (RADAR)
10:12PM -22.1659 150.2456 147° Southeast 574 661 37,000  Level Aus ATC (RADAR)
10:13PM -22.2428 150.3019 146° Southeast 572 658 37,000  Level Aus ATC (RADAR)
10:14PM -22.3538 150.3819 146° Southeast 576 663 37,000  Level Aus ATC (RADAR)
10:14PM -22.4312 150.4376 146° Southeast 574 661 37,000  Level Aus ATC (RADAR)
10:15PM -22.5635 150.5337 146° Southeast 573 659 37,000  Level Aus ATC (RADAR)
10:16PM -22.6621 150.6059 146° Southeast 574 661 37,000  Level Aus ATC (RADAR)
10:17PM -22.7720 150.6863 146° Southeast 572 658 37,000  Level Aus ATC (RADAR)
10:18PM -22.8487 150.7425 146° Southeast 571 657 37,000  Level Aus ATC (RADAR)
10:19PM -22.9695 150.8311 146° Southeast 571 657 37,000  Level Aus ATC (RADAR)
10:19PM -23.0563 150.8949 146° Southeast 565 650 37,000  Level Aus ATC (RADAR)
10:19PM -23.0550 150.8950 146° Southeast 565 650 37,000  Level FlightAware
10:20PM -23.1410 150.9580 146° Southeast 564 649 37,000  Level FlightAware
10:20PM -23.1967 150.9984 146° Southeast 564 649 37,000  Level Aus ATC (RADAR)
10:21PM -23.2390 151.0300 146° Southeast 565 650 37,000  Level FlightAware
10:21PM -23.3047 151.0781 146° Southeast 562 647 37,000  Level Aus ATC (RADAR)
10:21PM -23.3240 151.0930 146° Southeast 562 647 37,000  Level FlightAware
10:22PM -23.3907 151.1415 146° Southeast 560 644 37,000  Level Aus ATC (RADAR)
10:22PM -23.4210 151.1640 146° Southeast 561 646 37,000  Level FlightAware
10:23PM -23.5085 151.2289 146° Southeast 558 642 37,000  Level Aus ATC (RADAR)
10:23PM -23.5080 151.2290 146° Southeast 561 646 37,000  Level FlightAware
10:23PM -23.5960 151.2940 146° Southeast 560 644 37,000  Level FlightAware
10:24PM -23.6920 151.3660 146° Southeast 551 634 37,000  Level FlightAware
10:25PM -23.7770 151.4280 146° Southeast 550 633 37,000  Level FlightAware
10:26PM -23.8720 151.4990 146° Southeast 550 633 37,000  Level FlightAware
10:26PM -23.9590 151.5640 146° Southeast 550 633 37,000  Level FlightAware
10:27PM -24.0430 151.6270 146° Southeast 548 631 37,000  Level FlightAware
10:27PM -24.0945 151.6648 146° Southeast 552 635 37,000  Level Aus ATC (RADAR)
10:28PM -24.1390 151.6980 146° Southeast 545 627 37,000  Level FlightAware
10:28PM -24.2230 151.7610 146° Southeast 549 632 37,000 60 Level FlightAware
10:29PM -24.2936 151.8139 146° Southeast 541 623 37,100 420 Climbing Aus ATC (RADAR)
10:29PM -24.3070 151.8240 146° Southeast 545 627 37,300 1,740 Climbing FlightAware
10:29PM -24.3650 151.8684 146° Southeast 536 617 38,100 1,200 Climbing Aus ATC (RADAR)
10:30PM -24.3990 151.8940 146° Southeast 532 612 38,200 360 Climbing FlightAware
10:30PM -24.4790 151.9540 146° Southeast 548 631 38,500 540 Climbing FlightAware
10:31PM -24.5760 152.0270 146° Southeast 547 629 39,000 300 Climbing FlightAware
10:32PM -24.6600 152.0910 145° Southeast 553 636 39,000  Level FlightAware
10:33PM -24.7580 152.1650 146° Southeast 566 651 39,000  Level FlightAware
10:33PM -24.8420 152.2290 145° Southeast 565 650 39,000 60 Level FlightAware
10:34PM -24.9040 152.2760 145° Southeast 562 647 39,100  Climbing Aus ATC (RADAR)
10:34PM -24.9360 152.3000 145° Southeast 567 652 39,000 -120 Descending FlightAware
10:35PM -25.0250 152.3680 145° Southeast 566 651 39,000  Level FlightAware
10:35PM -25.1230 152.4430 145° Southeast 569 655 39,000  Level FlightAware
10:36PM -25.2110 152.5100 145° Southeast 569 655 39,000  Level FlightAware
10:37PM -25.2970 152.5760 145° Southeast 566 651 39,000 60 Level FlightAware
10:37PM -25.3571 152.6222 145° Southeast 562 647 39,100 120 Climbing Aus ATC (RADAR)
10:37PM -25.3892 152.6470 145° Southeast 562 647 39,100 -300 Level Aus ATC (RADAR)
10:38PM -25.3920 152.6490 145° Southeast 568 654 39,000  Descending FlightAware
10:38PM -25.4646 152.7045 145° Southeast 562 647 39,100  Climbing Aus ATC (RADAR)
10:38PM -25.4750 152.7130 145° Southeast 564 649 39,000  Descending FlightAware
10:39PM -25.5604 152.7779 145° Southeast 556 640 39,100  Climbing Aus ATC (RADAR)
10:39PM -25.5970 152.8060 145° Southeast 561 646 39,000  Descending FlightAware
10:39PM -25.6458 152.8437 145° Southeast 557 641 39,100  Climbing Aus ATC (RADAR)
10:40PM -25.6920 152.8800 145° Southeast 561 646 39,000  Descending FlightAware
10:40PM -25.7622 152.9344 145° Southeast 554 638 39,100  Climbing Aus ATC (RADAR)
10:41PM -25.7780 152.9460 145° Southeast 560 644 39,000 -120 Descending FlightAware
10:41PM -25.8730 153.0200 145° Southeast 562 647 39,000  Level FlightAware
10:42PM -25.9580 153.0860 145° Southeast 561 646 39,000 60 Level FlightAware
10:42PM -26.0062 153.1240 145° Southeast 556 640 39,100  Climbing Aus ATC (RADAR)
10:43PM -26.0400 153.1500 145° Southeast 559 643 39,000  Descending FlightAware
10:43PM -26.0909 153.1901 145° Southeast 554 638 39,100  Climbing Aus ATC (RADAR)
10:43PM -26.1350 153.2240 145° Southeast 561 646 39,000  Descending FlightAware
10:44PM -26.2184 153.2896 145° Southeast 555 639 39,100  Climbing Aus ATC (RADAR)
10:44PM -26.2230 153.2930 145° Southeast 559 643 39,000  Descending FlightAware
10:45PM -26.2920 153.3472 145° Southeast 551 634 39,100  Climbing Aus ATC (RADAR)
10:45PM -26.3190 153.3670 145° Southeast 550 633 39,000  Descending FlightAware
10:45PM -26.3960 153.4289 145° Southeast 544 626 39,100  Climbing Aus ATC (RADAR)
10:45PM -26.4020 153.4330 145° Southeast 550 633 39,000  Descending FlightAware
10:46PM -26.4711 153.4836 145° Southeast 551 634 39,100  Climbing Aus ATC (RADAR)
10:46PM -26.4860 153.4910 145° Southeast 552 635 39,000 -120 Descending FlightAware
10:47PM -26.5910 153.5440 156° South 547 629 39,000 120 Level FlightAware
10:47PM -26.6580 153.5703 156° South 544 626 39,200  Climbing Aus ATC (RADAR)
10:48PM -26.6820 153.5780 156° South 523 602 39,000 -2,340 Descending FlightAware
10:48PM -26.7844 153.6159 156° South 518 596 37,100 -3,120 Descending Aus ATC (RADAR)
10:48PM -26.7920 153.6180 156° South 538 619 36,700 -3,900 Descending FlightAware
10:49PM -26.8870 153.6530 162° South 562 647 34,000 -4,200 Descending FlightAware
10:50PM -26.9880 153.6900 162° South 561 646 31,100 -4,200 Descending FlightAware
10:50PM -27.0980 153.7300 162° South 541 623 28,100 -3,780 Descending FlightAware
10:51PM -27.1605 153.7537 162° South 527 606 26,900 -3,300 Descending Aus ATC (RADAR)
10:51PM -27.1900 153.7640 162° South 507 583 25,900 -3,840 Descending FlightAware
10:52PM -27.2732 153.7852 162° South 493 567 23,700 -4,020 Descending Aus ATC (RADAR)
10:52PM -27.2880 153.7870 162° South 473 544 22,900 -4,140 Descending FlightAware
10:52PM -27.3479 153.7938 162° South 462 532 21,300 -3,900 Descending Aus ATC (RADAR)
10:52PM -27.3760 153.7940 162° South 439 505 20,300 -3,960 Descending FlightAware
10:53PM -27.4470 153.7952 162° South 419 482 18,000 -4,200 Descending Aus ATC (RADAR)
10:53PM -27.4510 153.7950 162° South 416 479 17,500 -4,560 Descending FlightAware
10:54PM -27.5400 153.7970 179° South 402 463 14,000 -3,900 Descending FlightAware
10:55PM -27.6120 153.7980 179° South 382 440 12,000 -2,160 Descending FlightAware
10:55PM -27.6920 153.7990 179° South 351 404 11,000 -1,140 Descending FlightAware
10:56PM -27.7301 153.7994 179° South 337 388 10,800 -900 Descending Aus ATC (RADAR)
10:56PM -27.7430 153.7990 179° South 319 367 10,500 -1,080 Descending FlightAware
10:56PM -27.7760 153.7910 179° South 310 357 10,100 -960 Descending FlightAware
10:56PM -27.7853 153.7849 179° South 314 361 10,100 -900 Level Aus ATC (RADAR)
10:57PM -27.7970 153.7650 228° Southwest 299 344 9,800 -1,380 Descending FlightAware
10:57PM -27.8160 153.7230 243° Southwest 300 345 9,000 -1,800 Descending FlightAware
10:58PM -27.8290 153.6860 248° West 303 349 8,200 -1,800 Descending FlightAware
10:58PM -27.8360 153.6370 261° West 299 344 7,400 -1,560 Descending FlightAware
10:58PM -27.8400 153.5990 263° West 296 341 6,800 -1,560 Descending FlightAware
10:59PM -27.8440 153.5590 264° West 294 338 6,100 -1,620 Descending FlightAware
10:59PM -27.8470 153.5326 264° West 291 335 5,700 -1,560 Descending Aus ATC (RADAR)
10:59PM -27.8550 153.5130 264° West 287 330 5,200 -1,500 Descending FlightAware
11:00PM -27.8600 153.5040 238° Southwest 287 330 5,100 -720 Descending FlightAware
11:00PM -27.8800 153.4700 236° Southwest 252 290 4,800 -660 Descending FlightAware
11:01PM -27.8970 153.4340 242° Southwest 225 259 4,400 -720 Descending FlightAware
11:01PM -27.9050 153.4210 235° Southwest 209 241 4,200 -960 Descending FlightAware
11:01PM -27.9140 153.4160 206° Southwest 196 226 4,000 -1,200 Descending FlightAware
11:01PM -27.9324 153.4174 206° Southwest 199 229 3,700 -1,200 Descending Aus ATC (RADAR)
11:02PM -27.9390 153.4220 206° Southwest 185 213 3,400 -600 Descending FlightAware
11:02PM -27.9620 153.4290 165° South 155 178 3,300 -120 Descending FlightAware
11:02PM -27.9770 153.4340 164° South 135 155 3,300 180 Level FlightAware
11:03PM -27.9930 153.4400 162° South 137 158 3,500 660 Climbing FlightAware
11:03PM -28.0050 153.4450 160° South 162 186 3,800 720 Climbing FlightAware
11:03PM -28.0090 153.4500 132° Southeast 180 207 3,800  Level FlightAware
11:04PM -28.0150 153.4640 116° Southeast 172 198 3,800  Level FlightAware
11:04PM -28.0240 153.4890 112° Southeast 169 194 3,800  Level FlightAware
11:05PM -28.0310 153.5100 111° Southeast 172 198 3,800 180 Level FlightAware
11:05PM -28.0410 153.5361 111° Southeast 171 197 4,000  Climbing Aus ATC (RADAR)
11:05PM -28.0410 153.5360 111° Southeast 189 217 3,800 -420 Descending FlightAware
11:05PM -28.0490 153.5600 111° Southeast 174 200 3,800  Level FlightAware
11:06PM -28.0590 153.5860 114° Southeast 174 200 3,800  Level FlightAware
11:06PM -28.0680 153.6110 112° Southeast 177 204 3,800  Level FlightAware
11:07PM -28.0770 153.6320 116° Southeast 176 203 3,800  Level FlightAware
11:07PM -28.0870 153.6400 145° Southeast 178 205 3,800  Level FlightAware
11:07PM -28.0950 153.6430 162° South 182 209 3,800 240 Level FlightAware
11:08PM -28.1099 153.6399 162° South 181 208 3,900 -900 Climbing Aus ATC (RADAR)
11:08PM -28.1120 153.6370 162° South 200 230 3,500 -2,640 Descending FlightAware
11:08PM -28.1200 153.6200 242° Southwest 222 255 2,800 -1,680 Descending FlightAware
11:08PM -28.1130 153.5950 288° West 229 264 2,400 -600 Descending FlightAware
11:09PM -28.0980 153.5650 300° West 215 247 2,300 -180 Descending FlightAware
11:09PM -28.0920 153.5520 298° West 215 247 2,300 360 Level FlightAware
11:09PM -28.0834 153.5334 298° West 211 243 2,500 -720 Climbing Aus ATC (RADAR)
11:09PM -28.0800 153.5270 298° West 211 243 2,000 -1,500 Descending FlightAware
11:10PM -28.0840 153.4970 261° West 184 212 1,500 -840 Descending FlightAware
11:10PM -28.0920 153.4870 228° Southwest 155 178 1,300 -300 Descending FlightAware
11:11PM -28.1050 153.4740 221° Southwest 155 178 1,300 -780 Level FlightAware
11:11PM -28.1204 153.4791 221° Southwest 130 150 800 -1,200 Descending Aus ATC (RADAR)
11:11PM -28.1210 153.4610 221° Southwest 182 209 800 -600 Level FlightAware
11:12PM -28.1403 153.4906 221° Southwest 120 138 400 -840 Descending Aus ATC (RADAR)